Otisville, Michigan
Current Conditions -  °F | °C
As of 9:33 AM on Saturday 25 Oct 2014 (Local Time) from KD95 Reporting Station
Overcast Overcast  
Wind Chill: 55°   Ceiling: 1200
Heat Index: 55°   Visibility: 7mi
Dew Point: 49°   Wind: 12mph
Humidity: 81%   Direction: 260°W
Pressure: 29.78"   Gusts: 16mph
Location:  43.17°N, 83.52°W
Report Text: KD95 251333Z AUTO 26010G14KT 7SM BKN012 OVC023 13/09 A2978 RMK AO2 T01260094
Loading
Personal Weather Stations






























Interactive Weather Map
Tropical Storm Tracking
New forecast layout! Learn more

10-Day Weather Forecast

Advertisements
Track Severe Weather on mobile